createdAt,value
2022-08-04T00:03:24.630Z,414.00
2022-08-04T00:08:24.952Z,411.00
2022-08-04T00:13:23.247Z,390.70
2022-08-04T00:18:22.417Z,415.40
2022-08-04T00:23:22.573Z,415.10
2022-08-04T00:28:21.717Z,411.30
2022-08-04T00:33:21.139Z,436.00
2022-08-04T00:38:20.215Z,408.10
2022-08-04T00:43:19.523Z,440.40
2022-08-04T00:48:17.669Z,390.50
2022-08-04T00:53:17.006Z,388.20
2022-08-04T00:58:17.330Z,421.20
2022-08-04T01:03:17.646Z,425.10
2022-08-04T01:08:15.947Z,455.10
2022-08-04T01:13:15.705Z,408.30
2022-08-04T01:18:13.423Z,409.00
2022-08-04T01:23:12.724Z,381.50
2022-08-04T01:28:13.012Z,409.10
2022-08-04T01:33:13.376Z,450.00
2022-08-04T01:38:18.451Z,403.90
2022-08-04T01:43:10.853Z,416.90
2022-08-04T01:48:09.156Z,449.00
2022-08-04T01:53:08.440Z,444.30
2022-08-04T01:58:08.721Z,418.30
2022-08-04T02:03:06.091Z,416.20
2022-08-04T02:08:08.228Z,443.50
2022-08-04T02:13:05.523Z,481.60
2022-08-04T02:18:06.833Z,386.40
2022-08-04T02:23:04.113Z,378.50
2022-08-04T02:28:03.426Z,479.50
2022-08-04T02:33:02.724Z,430.70
2022-08-04T02:38:03.046Z,409.40
2022-08-04T02:43:01.390Z,469.30
2022-08-04T02:48:23.666Z,445.50
2022-08-04T02:53:00.702Z,453.70
2022-08-04T02:58:00.852Z,433.70
2022-08-04T03:02:59.203Z,470.60
2022-08-04T03:07:59.340Z,448.20
2022-08-04T03:12:58.699Z,434.50
2022-08-04T03:17:55.829Z,453.90
2022-08-04T03:23:12.510Z,468.00
2022-08-04T03:27:54.308Z,468.40
2022-08-04T03:32:53.633Z,484.10
2022-08-04T03:37:52.966Z,454.10
2022-08-04T03:42:52.296Z,447.70
2022-08-04T03:47:51.401Z,433.30
2022-08-04T03:52:51.714Z,480.30
2022-08-04T03:57:50.034Z,461.20
2022-08-04T04:02:49.396Z,432.20
2022-08-04T04:07:58.127Z,476.50
2022-08-04T04:12:47.689Z,457.40
2022-08-04T04:17:47.020Z,430.00
2022-08-04T04:22:48.167Z,420.20
2022-08-04T04:27:45.402Z,439.90
2022-08-04T04:32:45.700Z,485.00
2022-08-04T04:37:49.060Z,437.50
2022-08-04T04:42:42.182Z,443.50
2022-08-04T04:48:07.402Z,425.20
2022-08-04T04:52:42.516Z,449.00
2022-08-04T04:57:54.123Z,410.50
2022-08-04T05:02:41.015Z,465.50
2022-08-04T05:07:40.318Z,443.40
2022-08-04T05:14:30.805Z,446.90
2022-08-04T05:17:38.657Z,469.20
2022-08-04T05:22:36.920Z,405.20
2022-08-04T05:27:39.826Z,454.50
2022-08-04T05:32:35.475Z,460.00
2022-08-04T05:37:34.880Z,452.90
2022-08-04T05:42:33.981Z,415.70
2022-08-04T05:47:33.289Z,466.40
2022-08-04T05:52:32.630Z,451.60
2022-08-04T05:57:31.932Z,458.00
2022-08-04T06:02:31.227Z,441.90
2022-08-04T06:07:31.565Z,410.90
2022-08-04T06:12:29.697Z,417.70
2022-08-04T06:18:32.817Z,421.10
2022-08-04T06:22:29.197Z,407.50
2022-08-04T06:27:28.500Z,465.10
2022-08-04T06:32:33.630Z,469.30
2022-08-04T06:37:42.917Z,446.90
2022-08-04T06:42:26.081Z,451.00
2022-08-04T06:47:25.372Z,410.00
2022-08-04T06:52:23.693Z,456.50
2022-08-04T06:57:23.042Z,446.50
2022-08-04T07:02:21.965Z,436.40
2022-08-04T07:07:23.327Z,452.20
2022-08-04T07:12:20.436Z,409.40
2022-08-04T07:17:19.987Z,422.70
2022-08-04T07:22:25.249Z,409.60
2022-08-04T07:27:19.256Z,452.40
2022-08-04T07:32:18.357Z,449.50
2022-08-04T07:37:16.682Z,416.10
2022-08-04T07:42:17.924Z,396.20
2022-08-04T07:47:15.213Z,415.60
2022-08-04T07:52:14.551Z,396.00
2022-08-04T07:57:19.120Z,367.40
2022-08-04T08:02:13.945Z,363.50
2022-08-04T08:07:12.065Z,428.30
2022-08-04T08:12:36.407Z,391.80
2022-08-04T08:17:12.585Z,399.70
2022-08-04T08:22:09.878Z,401.30
2022-08-04T08:27:09.216Z,363.90
2022-08-04T08:32:08.827Z,451.10
2022-08-04T08:37:08.801Z,363.20
2022-08-04T08:42:07.119Z,369.10
2022-08-04T08:47:08.463Z,485.30
2022-08-04T08:52:05.567Z,417.80
2022-08-04T08:57:04.888Z,393.40
2022-08-04T09:02:05.225Z,362.40
2022-08-04T09:07:03.537Z,403.20
2022-08-04T09:12:04.863Z,383.50
2022-08-04T09:17:03.180Z,409.20
2022-08-04T09:22:02.543Z,383.70
2022-08-04T09:27:02.682Z,500.80
2022-08-04T09:32:07.150Z,431.80
2022-08-04T09:36:59.143Z,427.20
2022-08-04T09:41:58.462Z,392.20
2022-08-04T09:46:59.731Z,446.30
2022-08-04T09:51:59.565Z,406.90
2022-08-04T09:56:56.119Z,410.90
2022-08-04T10:01:59.109Z,462.30
2022-08-04T10:06:54.615Z,443.80
2022-08-04T10:11:55.331Z,461.40
2022-08-04T10:16:54.096Z,451.00
2022-08-04T10:22:27.482Z,502.10
2022-08-04T10:26:57.366Z,450.50
2022-08-04T10:31:52.804Z,447.40
2022-08-04T10:36:50.089Z,378.40
2022-08-04T10:41:49.422Z,378.10
2022-08-04T10:46:49.752Z,450.90
2022-08-04T10:51:58.572Z,433.20
2022-08-04T10:56:47.050Z,450.20
2022-08-04T11:02:02.062Z,439.80
2022-08-04T11:06:47.378Z,489.80
2022-08-04T11:11:57.118Z,485.10
2022-08-04T11:16:43.849Z,493.50
2022-08-04T11:21:45.155Z,504.70
2022-08-04T11:26:42.845Z,517.80
2022-08-04T11:31:41.789Z,488.10
2022-08-04T11:36:42.107Z,485.30
2022-08-04T11:41:41.429Z,482.00
2022-08-04T11:46:40.746Z,508.80
2022-08-04T11:51:40.025Z,494.20
2022-08-04T11:56:41.326Z,515.30
2022-08-04T12:01:38.627Z,481.10
2022-08-04T12:06:36.946Z,487.50
2022-08-04T12:11:37.242Z,527.80
2022-08-04T12:16:36.519Z,490.30
2022-08-04T12:21:35.845Z,484.80
2022-08-04T12:26:35.253Z,518.90
2022-08-04T12:31:34.361Z,492.90
2022-08-04T12:36:32.715Z,460.90
2022-08-04T12:41:31.838Z,459.40
2022-08-04T12:46:31.054Z,446.90
2022-08-04T12:52:06.108Z,472.00
2022-08-04T12:56:29.563Z,476.80
2022-08-04T13:02:09.882Z,424.90
2022-08-04T13:06:28.100Z,462.40
2022-08-04T13:11:30.220Z,463.30
2022-08-04T13:16:28.368Z,440.30
2022-08-04T13:21:50.433Z,494.70
2022-08-04T13:26:42.632Z,477.00
2022-08-04T13:31:23.947Z,467.90
2022-08-04T13:36:25.214Z,462.50
2022-08-04T13:41:26.477Z,468.90
2022-08-04T13:46:28.046Z,500.40
2022-08-04T13:51:19.793Z,547.90
2022-08-04T13:56:22.093Z,502.40
2022-08-04T14:01:19.465Z,468.10
2022-08-04T14:06:18.599Z,453.10
2022-08-04T14:12:06.494Z,459.50
2022-08-04T14:16:17.113Z,486.60
2022-08-04T14:21:16.289Z,442.80
2022-08-04T14:26:15.407Z,520.40
2022-08-04T14:31:15.758Z,447.00
2022-08-04T14:36:15.850Z,434.30
2022-08-04T14:41:13.395Z,394.30
2022-08-04T14:46:14.584Z,508.80
2022-08-04T14:51:13.711Z,418.70
2022-08-04T14:56:37.311Z,440.00
2022-08-04T15:01:12.095Z,467.40
2022-08-04T15:06:15.144Z,432.00
2022-08-04T15:11:10.604Z,437.30
2022-08-04T15:16:09.821Z,398.70
2022-08-04T15:21:08.018Z,452.40
2022-08-04T15:26:08.129Z,414.10
2022-08-04T15:31:10.485Z,405.70
2022-08-04T15:36:04.587Z,434.30
2022-08-04T15:41:03.905Z,424.20
2022-08-04T15:46:42.863Z,318.00
2022-08-04T15:51:02.359Z,386.20
2022-08-04T15:56:01.693Z,365.00
2022-08-04T16:01:02.955Z,335.20
2022-08-04T16:06:02.245Z,383.00
2022-08-04T16:10:59.590Z,317.50
2022-08-04T16:16:03.736Z,379.90
2022-08-04T16:20:57.960Z,370.50
2022-08-04T16:25:57.067Z,369.80
2022-08-04T16:30:56.412Z,429.80
2022-08-04T16:36:08.011Z,464.40
2022-08-04T16:40:55.825Z,302.50
2022-08-04T16:45:54.284Z,381.00
2022-08-04T16:50:53.434Z,333.10
2022-08-04T16:55:53.828Z,355.20
2022-08-04T17:00:51.932Z,354.80
2022-08-04T17:05:51.208Z,300.90
2022-08-04T17:10:50.599Z,339.70
2022-08-04T17:15:49.667Z,311.50
2022-08-04T17:21:01.351Z,333.80
2022-08-04T17:25:51.832Z,316.80
2022-08-04T17:30:47.916Z,332.00
2022-08-04T17:35:46.699Z,355.50
2022-08-04T17:40:46.855Z,289.30
2022-08-04T17:45:53.453Z,333.80
2022-08-04T17:50:45.276Z,354.00
2022-08-04T17:55:44.630Z,274.50
2022-08-04T18:00:42.692Z,323.40
2022-08-04T18:06:01.604Z,345.70
2022-08-04T18:10:54.539Z,332.60
2022-08-04T18:15:40.751Z,372.20
2022-08-04T18:20:38.376Z,316.00
2022-08-04T18:25:51.114Z,319.40
2022-08-04T18:30:53.733Z,339.60
2022-08-04T18:36:33.752Z,296.40
2022-08-04T18:40:52.337Z,319.70
2022-08-04T18:45:36.149Z,312.70
2022-08-04T18:51:10.953Z,318.80
2022-08-04T18:55:55.236Z,289.00
2022-08-04T19:00:34.563Z,328.70
2022-08-04T19:05:38.209Z,346.30
2022-08-04T19:10:32.352Z,298.90
2022-08-04T19:15:34.366Z,338.20
2022-08-04T19:20:29.741Z,310.60
2022-08-04T19:25:59.680Z,313.90
2022-08-04T19:30:29.149Z,317.70
2022-08-04T19:35:28.385Z,347.80
2022-08-04T19:40:33.832Z,398.30
2022-08-04T19:45:41.941Z,469.20
2022-08-04T19:50:25.950Z,417.90
2022-08-04T19:55:37.380Z,420.80
2022-08-04T20:00:33.659Z,422.20
2022-08-04T20:05:54.159Z,356.60
2022-08-04T20:10:24.037Z,429.60
2022-08-04T20:15:21.172Z,502.70
2022-08-04T20:20:20.302Z,414.50
2022-08-04T20:25:37.234Z,453.40
2022-08-04T20:30:19.049Z,456.60
2022-08-04T20:35:18.867Z,526.20
2022-08-04T20:40:17.353Z,468.20
2022-08-04T20:45:17.385Z,464.30
2022-08-04T20:50:16.558Z,373.30
2022-08-04T20:55:14.887Z,402.00
2022-08-04T21:00:14.023Z,379.20
2022-08-04T21:05:13.360Z,374.50
2022-08-04T21:10:12.477Z,487.90
2022-08-04T21:15:14.143Z,434.70
2022-08-04T21:20:12.935Z,473.90
2022-08-04T21:25:16.375Z,446.30
2022-08-04T21:30:14.961Z,480.80
2022-08-04T21:35:10.375Z,462.50
2022-08-04T21:40:14.446Z,495.00
2022-08-04T21:45:06.888Z,555.90
2022-08-04T21:50:06.036Z,557.60
2022-08-04T21:55:05.329Z,431.60
2022-08-04T22:00:06.567Z,407.50
2022-08-04T22:05:03.854Z,438.00
2022-08-04T22:10:03.394Z,480.60
2022-08-04T22:15:02.367Z,361.80
2022-08-04T22:20:01.992Z,363.10
2022-08-04T22:25:12.517Z,340.70
2022-08-04T22:30:00.025Z,373.20
2022-08-04T22:35:02.987Z,450.30
2022-08-04T22:39:57.563Z,424.60
2022-08-04T22:44:57.692Z,422.50
2022-08-04T22:50:21.768Z,362.30
2022-08-04T22:54:56.125Z,412.60
2022-08-04T22:59:55.449Z,464.40
2022-08-04T23:04:54.761Z,416.10
2022-08-04T23:09:55.077Z,406.70
2022-08-04T23:14:55.378Z,396.50
2022-08-04T23:19:57.360Z,326.60
2022-08-04T23:24:51.937Z,414.90
2022-08-04T23:29:52.850Z,401.70
2022-08-04T23:34:51.246Z,304.10
2022-08-04T23:40:15.664Z,309.30
2022-08-04T23:44:48.809Z,280.50
2022-08-04T23:49:50.079Z,258.40
2022-08-04T23:54:50.273Z,332.40
2022-08-04T23:59:53.046Z,286.80
